Time;durP1;ratioP1;P1;durP2;ratioP2;P2;SDS_P1;SDS_P2;PMS_P1;PMS_P2;Temp;Humidity;BMP_temperature;BMP_pressure;BME280_temperature;BME280_humidity;BME280_pressure;Samples;Min_cycle;Max_cycle;Signal;HPM_P1;HPM_P2
2021/04/19 00:01:37;;;;;;;55.70;51.10;;;9.80;58.50;;;;;;5070214;28;20548;-46
2021/04/19 00:04:03;;;;;;;34.88;31.80;;;9.80;57.40;;;;;;5068171;28;20182;-45
2021/04/19 00:06:29;;;;;;;35.75;32.40;;;9.80;57.30;;;;;;5067854;28;20665;-46
2021/04/19 00:08:55;;;;;;;43.13;39.80;;;9.70;58.20;;;;;;5069506;28;20647;-47
2021/04/19 00:11:22;;;;;;;58.38;53.10;;;9.60;58.50;;;;;;5067143;28;20695;-47
2021/04/19 00:13:48;;;;;;;32.28;29.70;;;9.60;58.70;;;;;;5069569;28;20181;-46
2021/04/19 00:16:14;;;;;;;37.35;33.90;;;9.50;57.90;;;;;;5069962;28;20210;-47
2021/04/19 00:18:40;;;;;;;35.92;33.50;;;9.50;57.90;;;;;;5064368;28;20171;-47
2021/04/19 00:21:06;;;;;;;40.75;37.88;;;9.50;58.00;;;;;;5065729;28;20185;-45
2021/04/19 00:23:32;;;;;;;16.45;14.73;;;9.40;58.30;;;;;;5070872;28;20503;-45
2021/04/19 00:25:59;;;;;;;27.23;24.88;;;9.40;58.40;;;;;;5068836;28;20176;-46
2021/04/19 00:28:25;;;;;;;76.30;71.05;;;9.40;59.20;;;;;;5072184;28;20618;-46
2021/04/19 00:30:52;;;;;;;27.50;25.27;;;9.40;58.60;;;;;;5065079;28;20675;-49
2021/04/19 00:33:18;;;;;;;53.10;48.75;;;9.40;58.70;;;;;;5068422;28;20218;-46
2021/04/19 00:35:44;;;;;;;51.45;47.33;;;9.40;57.90;;;;;;5065670;28;20198;-45
2021/04/19 00:38:10;;;;;;;38.35;34.88;;;9.40;57.30;;;;;;5068528;28;20541;-49
2021/04/19 00:40:36;;;;;;;18.85;17.25;;;9.30;57.90;;;;;;5071497;28;20507;-46
2021/04/19 00:43:03;;;;;;;49.97;46.05;;;9.30;57.30;;;;;;5063614;28;20177;-47
2021/04/19 00:45:29;;;;;;;40.10;37.33;;;9.30;57.60;;;;;;5070038;28;20189;-46
2021/04/19 00:47:55;;;;;;;54.58;50.58;;;9.20;58.10;;;;;;5070188;28;20201;-47
2021/04/19 00:50:27;;;;;;;54.45;49.92;;;9.20;57.60;;;;;;5069706;28;20182;-47
2021/04/19 00:52:53;;;;;;;49.35;45.55;;;9.10;58.00;;;;;;5070258;28;20159;-49
2021/04/19 00:55:19;;;;;;;48.83;44.75;;;9.10;57.20;;;;;;5066974;28;20213;-46
2021/04/19 00:57:46;;;;;;;21.00;19.25;;;9.00;58.30;;;;;;5068784;28;20193;-45
2021/04/19 01:00:17;;;;;;;61.40;56.63;;;9.00;58.20;;;;;;5066640;28;21686;-46
2021/04/19 01:02:44;;;;;;;28.25;25.90;;;8.90;57.70;;;;;;5069753;28;20161;-46
2021/04/19 01:05:23;;;;;;;39.10;35.65;;;9.00;57.90;;;;;;5064627;28;20178;-48
2021/04/19 01:07:49;;;;;;;34.47;31.35;;;8.90;58.40;;;;;;5063189;28;20542;-47
2021/04/19 01:10:16;;;;;;;41.00;37.80;;;8.80;59.90;;;;;;5069966;28;20174;-47
2021/04/19 01:12:42;;;;;;;19.90;18.25;;;8.70;59.70;;;;;;5067656;28;20174;-47
2021/04/19 01:15:09;;;;;;;40.55;37.63;;;8.60;59.80;;;;;;5064835;28;20201;-46
2021/04/19 01:17:35;;;;;;;76.72;70.88;;;8.50;60.10;;;;;;5065654;28;20183;-48
2021/04/19 01:20:01;;;;;;;52.83;48.63;;;8.50;60.10;;;;;;5066282;28;20550;-47
2021/04/19 01:22:27;;;;;;;39.55;36.45;;;8.50;60.00;;;;;;5069799;28;20649;-46
2021/04/19 01:24:53;;;;;;;49.47;46.05;;;8.40;60.10;;;;;;5069606;28;20182;-47
2021/04/19 01:27:19;;;;;;;45.50;41.70;;;8.40;60.60;;;;;;5070616;28;20185;-46
2021/04/19 01:29:46;;;;;;;20.42;18.77;;;8.30;60.20;;;;;;5066975;28;20178;-46
2021/04/19 01:32:12;;;;;;;14.18;10.27;;;8.30;60.10;;;;;;5059744;28;20210;-47
2021/04/19 01:34:38;;;;;;;30.77;28.45;;;8.20;61.00;;;;;;5067336;28;20189;-47
2021/04/19 01:37:05;;;;;;;26.05;23.95;;;8.20;62.60;;;;;;5069914;28;20189;-46
2021/04/19 01:39:31;;;;;;;50.50;47.00;;;8.10;62.20;;;;;;5083499;28;20177;-47
2021/04/19 01:41:57;;;;;;;29.05;26.60;;;8.00;62.30;;;;;;5065118;28;20631;-46
2021/04/19 01:44:23;;;;;;;18.08;16.33;;;8.00;62.00;;;;;;5083272;28;20626;-45
2021/04/19 01:46:49;;;;;;;18.50;17.17;;;8.00;62.50;;;;;;5062237;28;20198;-46
2021/04/19 01:49:19;;;;;;;29.27;26.95;;;7.90;63.80;;;;;;5085171;28;20548;-46
2021/04/19 01:51:45;;;;;;;22.10;20.10;;;7.90;63.50;;;;;;5069794;28;20178;-45
2021/04/19 01:54:11;;;;;;;31.58;29.02;;;7.80;62.90;;;;;;5066653;28;20194;-46
2021/04/19 01:56:38;;;;;;;26.17;23.85;;;7.80;63.30;;;;;;5067069;28;20221;-46
2021/04/19 01:59:04;;;;;;;23.80;22.00;;;7.70;63.50;;;;;;5065873;28;20186;-46
2021/04/19 02:01:31;;;;;;;15.05;13.55;;;7.70;64.20;;;;;;5069183;28;20188;-47
2021/04/19 02:03:58;;;;;;;15.10;13.85;;;7.60;64.60;;;;;;5086538;28;20166;-46
2021/04/19 02:06:37;;;;;;;19.77;17.95;;;7.60;65.10;;;;;;5065198;28;20193;-47
2021/04/19 02:09:22;;;;;;;11.93;11.05;;;7.60;64.80;;;;;;5070362;28;20169;-45
2021/04/19 02:12:00;;;;;;;30.92;28.38;;;7.50;65.30;;;;;;5061125;28;20183;-46
2021/04/19 02:15:05;;;;;;;8.13;7.40;;;7.50;67.00;;;;;;5069452;28;20185;-46
2021/04/19 02:17:48;;;;;;;5.53;5.03;;;7.70;64.00;;;;;;5062903;28;20194;-46
2021/04/19 02:20:46;;;;;;;5.80;5.25;;;7.70;64.30;;;;;;5085079;28;20162;-45
2021/04/19 02:23:28;;;;;;;3.78;3.47;;;7.60;65.30;;;;;;5068342;28;20218;-46
2021/04/19 02:26:20;;;;;;;8.68;3.35;;;7.40;66.20;;;;;;5070128;28;20189;-49
2021/04/19 02:28:50;;;;;;;8.02;7.25;;;7.30;67.20;;;;;;5068652;28;20191;-48
2021/04/19 02:31:17;;;;;;;5.57;4.43;;;7.20;67.50;;;;;;5067281;28;20169;-46
2021/04/19 02:33:45;;;;;;;8.25;6.68;;;7.20;69.90;;;;;;5062265;28;20683;-46
2021/04/19 02:36:12;;;;;;;11.13;9.23;;;7.10;67.60;;;;;;5078972;28;20198;-47
2021/04/19 02:38:39;;;;;;;22.00;20.05;;;7.10;67.90;;;;;;5062710;28;20166;-47
2021/04/19 02:41:11;;;;;;;18.55;17.10;;;7.20;68.10;;;;;;5072250;28;20177;-49
2021/04/19 02:43:38;;;;;;;21.48;19.92;;;7.10;69.00;;;;;;5085327;28;20264;-49
2021/04/19 02:46:04;;;;;;;27.52;24.52;;;7.10;67.80;;;;;;5057049;28;20181;-47
2021/04/19 02:48:31;;;;;;;31.13;28.67;;;7.10;68.70;;;;;;5073904;28;20166;-46
2021/04/19 02:50:58;;;;;;;35.30;32.65;;;7.10;70.00;;;;;;5072461;28;20626;-49
2021/04/19 02:53:24;;;;;;;34.65;31.73;;;6.90;72.60;;;;;;5071641;28;20638;-46
2021/04/19 02:55:50;;;;;;;26.30;24.13;;;6.80;72.00;;;;;;5081198;28;20214;-46
2021/04/19 02:58:33;;;;;;;12.13;11.25;;;6.80;72.60;;;;;;5084021;28;20182;-46
2021/04/19 03:00:59;;;;;;;21.15;19.45;;;6.80;73.20;;;;;;5064353;28;20179;-46
2021/04/19 03:03:26;;;;;;;21.77;20.08;;;6.80;72.80;;;;;;5065600;28;20182;-48
2021/04/19 03:05:53;;;;;;;8.10;7.50;;;6.80;74.30;;;;;;5073201;28;20614;-48
2021/04/19 03:08:20;;;;;;;7.82;7.18;;;6.70;75.40;;;;;;5067294;28;20541;-46
2021/04/19 03:11:08;;;;;;;6.13;5.63;;;6.60;75.80;;;;;;5088427;28;20194;-45
2021/04/19 03:13:34;;;;;;;10.50;3.95;;;6.70;76.30;;;;;;5086017;28;20166;-46
2021/04/19 03:16:01;;;;;;;8.05;7.00;;;6.60;77.00;;;;;;5087679;28;20210;-50
2021/04/19 03:18:27;;;;;;;10.27;9.38;;;6.60;77.20;;;;;;5086772;28;20173;-46
2021/04/19 03:21:13;;;;;;;13.25;12.15;;;6.60;78.00;;;;;;5084190;28;22095;-47
2021/04/19 03:23:45;;;;;;;10.13;9.40;;;6.60;77.30;;;;;;5086775;28;20517;-47
2021/04/19 03:26:12;;;;;;;8.75;7.97;;;6.60;78.10;;;;;;5081804;28;20537;-47
2021/04/19 03:28:39;;;;;;;13.93;12.88;;;6.60;81.60;;;;;;5071980;28;20181;-47
2021/04/19 03:31:07;;;;;;;13.73;12.32;;;6.50;79.60;;;;;;5067209;28;20178;-47
2021/04/19 03:33:34;;;;;;;22.48;20.75;;;6.50;80.50;;;;;;5066087;28;20577;-46
2021/04/19 03:36:01;;;;;;;15.13;13.73;;;6.50;81.80;;;;;;5049667;28;20237;-48
2021/04/19 03:38:27;;;;;;;29.83;27.70;;;6.40;84.00;;;;;;5067607;28;20188;-47
2021/04/19 03:40:53;;;;;;;14.88;13.70;;;6.40;85.30;;;;;;5084205;28;20540;-47
2021/04/19 03:43:21;;;;;;;14.43;13.35;;;6.40;83.60;;;;;;5088360;28;20623;-49
2021/04/19 03:45:49;;;;;;;16.52;15.25;;;6.40;85.90;;;;;;5086516;28;20264;-47
2021/04/19 03:48:17;;;;;;;16.77;15.50;;;6.30;86.40;;;;;;5070084;28;20193;-46
2021/04/19 03:51:04;;;;;;;17.48;16.15;;;6.30;86.60;;;;;;5087047;28;20952;-46
2021/04/19 03:53:30;;;;;;;18.23;16.90;;;6.20;89.00;;;;;;5065859;28;20524;-47
2021/04/19 03:55:57;;;;;;;21.70;20.13;;;6.20;87.70;;;;;;5085324;28;20756;-45
2021/04/19 03:58:25;;;;;;;21.75;20.13;;;6.20;87.70;;;;;;5083290;28;20197;-45
2021/04/19 04:00:51;;;;;;;19.45;17.95;;;6.20;89.60;;;;;;5063851;28;20203;-45
2021/04/19 04:03:17;;;;;;;32.75;30.27;;;6.10;89.10;;;;;;5067126;28;20167;-45
2021/04/19 04:05:47;;;;;;;35.08;32.58;;;6.10;90.50;;;;;;5061431;28;20175;-48
2021/04/19 04:08:13;;;;;;;43.42;39.97;;;6.10;89.40;;;;;;5078164;28;20183;-46
2021/04/19 04:10:39;;;;;;;48.00;44.20;;;6.10;89.50;;;;;;5081310;28;20649;-45
2021/04/19 04:13:05;;;;;;;41.72;38.55;;;6.10;91.00;;;;;;5070473;28;20186;-46
2021/04/19 04:15:32;;;;;;;49.58;45.72;;;6.10;90.90;;;;;;5074288;28;20264;-47
2021/04/19 04:17:58;;;;;;;44.25;40.70;;;6.00;91.70;;;;;;5053587;28;20179;-46
2021/04/19 04:20:24;;;;;;;34.72;32.08;;;6.00;91.70;;;;;;5064680;28;20616;-46
2021/04/19 04:22:50;;;;;;;36.58;33.70;;;6.00;91.60;;;;;;5057164;28;20654;-47
2021/04/19 04:25:17;;;;;;;33.75;31.20;;;6.00;91.60;;;;;;5079052;28;20170;-47
2021/04/19 04:27:43;;;;;;;34.20;31.70;;;6.00;91.60;;;;;;5077293;28;20182;-46
2021/04/19 04:30:10;;;;;;;43.10;39.00;;;6.00;92.10;;;;;;5065517;28;20177;-46
2021/04/19 04:32:36;;;;;;;45.50;42.10;;;6.00;91.40;;;;;;5065060;28;20213;-50
2021/04/19 04:35:02;;;;;;;44.03;40.60;;;6.00;91.60;;;;;;5061238;28;20549;-45
2021/04/19 04:37:28;;;;;;;31.67;29.10;;;6.00;92.10;;;;;;5066026;28;20175;-46
2021/04/19 04:39:54;;;;;;;44.15;40.47;;;6.00;92.50;;;;;;5067218;28;20258;-46
2021/04/19 04:42:21;;;;;;;18.33;16.52;;;6.00;92.10;;;;;;5070815;28;20192;-45
2021/04/19 04:44:47;;;;;;;13.27;11.88;;;6.00;92.70;;;;;;5070945;28;20169;-45
2021/04/19 04:47:25;;;;;;;18.63;17.13;;;6.10;92.50;;;;;;5071367;28;20198;-44
2021/04/19 04:50:08;;;;;;;25.85;23.77;;;6.10;92.60;;;;;;5073133;28;20165;-45
2021/04/19 04:53:15;;;;;;;26.92;24.42;;;6.10;91.70;;;;;;5054776;28;20178;-46
2021/04/19 04:55:41;;;;;;;23.15;21.35;;;6.20;90.70;;;;;;5058716;28;20580;-45
2021/04/19 04:58:07;;;;;;;15.50;13.68;;;6.20;91.80;;;;;;5071624;28;20649;-45
2021/04/19 05:00:33;;;;;;;17.73;15.75;;;6.30;91.90;;;;;;5071019;28;20602;-45
2021/04/19 05:02:59;;;;;;;19.73;17.98;;;6.30;91.90;;;;;;5071681;28;20158;-45
2021/04/19 05:05:26;;;;;;;14.20;12.68;;;6.40;90.20;;;;;;5071297;28;20181;-46
2021/04/19 05:07:52;;;;;;;14.35;13.02;;;6.40;91.10;;;;;;5072337;28;20170;-45
2021/04/19 05:10:19;;;;;;;27.65;25.38;;;6.50;90.90;;;;;;5071286;28;20192;-46
2021/04/19 05:12:45;;;;;;;21.02;9.88;;;6.50;90.70;;;;;;5071050;28;20161;-44
2021/04/19 05:15:14;;;;;;;6.05;5.25;;;6.60;90.80;;;;;;5072400;28;20185;-46
2021/04/19 05:17:44;;;;;;;3.30;1.75;;;6.60;87.70;;;;;;5070874;28;20182;-44
2021/04/19 05:20:11;;;;;;;4.20;3.50;;;6.70;88.20;;;;;;5072609;28;20617;-44
2021/04/19 05:22:37;;;;;;;5.97;5.38;;;6.80;89.50;;;;;;5072286;28;20170;-46
2021/04/19 05:25:04;;;;;;;3.55;1.38;;;6.80;90.20;;;;;;5072388;28;20181;-45
2021/04/19 05:27:31;;;;;;;6.75;2.22;;;6.90;87.90;;;;;;5072068;28;20175;-46
2021/04/19 05:29:57;;;;;;;15.10;3.75;;;6.90;88.50;;;;;;5072553;28;20166;-46
2021/04/19 05:32:23;;;;;;;3.85;2.35;;;7.00;86.90;;;;;;5071141;28;20213;-46
2021/04/19 05:34:50;;;;;;;1.63;1.45;;;7.10;87.00;;;;;;5057304;28;20557;-45
2021/04/19 05:37:19;;;;;;;2.58;0.90;;;7.20;85.90;;;;;;5072788;28;20210;-46
2021/04/19 05:39:45;;;;;;;8.75;1.60;;;7.20;85.20;;;;;;5053860;28;20181;-47
2021/04/19 05:42:15;;;;;;;3.63;3.33;;;7.30;83.90;;;;;;5078355;28;20197;-45
2021/04/19 05:44:42;;;;;;;1.98;1.55;;;7.40;86.10;;;;;;5076771;28;20189;-47
2021/04/19 05:47:08;;;;;;;4.53;4.00;;;7.40;81.50;;;;;;5071383;28;20557;-45
2021/04/19 05:49:34;;;;;;;1.55;0.35;;;7.50;80.60;;;;;;5065849;28;20174;-46
2021/04/19 05:52:03;;;;;;;1.00;0.47;;;7.50;83.40;;;;;;5085108;28;20257;-47
2021/04/19 05:54:29;;;;;;;1.88;0.77;;;7.60;81.70;;;;;;5054110;28;20185;-47
2021/04/19 05:57:13;;;;;;;1.20;0.50;;;7.70;78.30;;;;;;5071176;28;20665;-46
2021/04/19 06:00:06;;;;;;;1.73;0.60;;;7.70;77.20;;;;;;5072372;28;20193;-44
2021/04/19 06:02:43;;;;;;;1.48;0.40;;;7.90;78.10;;;;;;5070741;28;20167;-45
2021/04/19 06:05:20;;;;;;;2.13;0.60;;;8.10;76.70;;;;;;5070966;28;20517;-47
2021/04/19 06:07:58;;;;;;;14.98;1.50;;;8.20;76.60;;;;;;5070014;28;20162;-44
2021/04/19 06:10:46;;;;;;;2.10;0.82;;;8.30;75.90;;;;;;5070173;28;20189;-46
2021/04/19 06:13:13;;;;;;;2.15;1.00;;;8.40;74.80;;;;;;5067194;28;20185;-45
2021/04/19 06:15:39;;;;;;;1.75;0.52;;;8.60;75.80;;;;;;5061149;28;20183;-46
2021/04/19 06:18:05;;;;;;;0.70;0.45;;;8.60;73.10;;;;;;5077828;28;20189;-45
2021/04/19 06:20:33;;;;;;;3.92;1.23;;;8.70;72.50;;;;;;5064847;28;20167;-46
2021/04/19 06:22:59;;;;;;;1.58;0.40;;;8.80;73.20;;;;;;5079708;28;20174;-45
2021/04/19 06:25:26;;;;;;;2.90;1.00;;;8.90;70.90;;;;;;5063375;28;20167;-46
2021/04/19 06:28:10;;;;;;;1.85;0.65;;;9.10;70.80;;;;;;5076492;28;20550;-46
2021/04/19 06:30:41;;;;;;;15.05;0.60;;;9.20;71.00;;;;;;5077669;28;20182;-45
2021/04/19 06:33:10;;;;;;;1.02;0.55;;;9.20;71.90;;;;;;5060443;28;20701;-46
2021/04/19 06:35:36;;;;;;;5.60;0.93;;;9.30;70.20;;;;;;5062218;28;20178;-49
2021/04/19 06:38:02;;;;;;;2.13;0.70;;;9.40;70.40;;;;;;5060517;28;20178;-46
2021/04/19 06:40:28;;;;;;;2.80;0.60;;;9.60;69.90;;;;;;5061496;28;20190;-45
2021/04/19 06:42:56;;;;;;;3.97;0.65;;;9.60;68.70;;;;;;5060653;28;20658;-45
2021/04/19 06:45:22;;;;;;;3.13;0.75;;;9.70;67.90;;;;;;5059403;28;20187;-47
2021/04/19 06:47:51;;;;;;;1.40;0.50;;;9.80;68.70;;;;;;5083207;28;20193;-46
2021/04/19 06:50:17;;;;;;;4.10;0.52;;;10.00;70.80;;;;;;5065349;28;20208;-45
2021/04/19 06:52:47;;;;;;;1.63;0.57;;;10.20;70.30;;;;;;5066011;28;20193;-45
2021/04/19 06:55:17;;;;;;;0.77;0.47;;;10.30;67.10;;;;;;5065240;28;20541;-46
2021/04/19 06:57:54;;;;;;;4.28;0.63;;;10.30;67.20;;;;;;5065925;28;20218;-46
2021/04/19 07:00:22;;;;;;;4.30;1.00;;;10.50;66.20;;;;;;5053705;28;20526;-46
2021/04/19 07:03:02;;;;;;;3.25;1.30;;;10.60;65.80;;;;;;5081223;28;20194;-47
2021/04/19 07:05:30;;;;;;;7.40;1.63;;;10.70;66.40;;;;;;5057096;28;20162;-47
2021/04/19 07:08:15;;;;;;;8.73;1.42;;;10.90;66.20;;;;;;5066831;28;20511;-46
2021/04/19 07:10:42;;;;;;;3.75;1.00;;;10.80;65.30;;;;;;5070649;28;20158;-47
2021/04/19 07:13:09;;;;;;;9.68;1.35;;;10.70;65.70;;;;;;5059918;28;20178;-46
2021/04/19 07:15:37;;;;;;;5.05;1.33;;;10.80;67.60;;;;;;5054464;28;20269;-47
2021/04/19 07:18:05;;;;;;;9.27;1.40;;;11.00;66.20;;;;;;5069764;28;20569;-45
2021/04/19 07:20:31;;;;;;;5.50;1.05;;;11.20;63.90;;;;;;5063306;28;20174;-46
2021/04/19 07:22:59;;;;;;;9.05;0.88;;;11.30;65.30;;;;;;5061047;28;20635;-47
2021/04/19 07:25:26;;;;;;;11.13;1.27;;;11.50;64.70;;;;;;5058585;28;20693;-46
2021/04/19 07:27:52;;;;;;;2.45;0.98;;;11.60;63.80;;;;;;5059647;28;20183;-45
2021/04/19 07:30:19;;;;;;;9.23;1.33;;;11.70;63.80;;;;;;5080657;28;20657;-46
2021/04/19 07:32:45;;;;;;;4.78;1.35;;;11.90;64.10;;;;;;5054974;28;20214;-45
2021/04/19 07:35:11;;;;;;;6.75;1.30;;;12.20;64.40;;;;;;5066477;28;20170;-46
2021/04/19 07:37:37;;;;;;;3.50;1.23;;;12.50;62.40;;;;;;5069679;28;20221;-48
2021/04/19 07:40:05;;;;;;;4.45;1.05;;;12.60;63.40;;;;;;5082130;28;20170;-46
2021/04/19 07:42:36;;;;;;;4.82;1.10;;;12.70;61.20;;;;;;5057588;28;20186;-44
2021/04/19 07:45:04;;;;;;;5.05;0.85;;;12.90;60.90;;;;;;5054046;28;20556;-45
2021/04/19 07:47:36;;;;;;;3.40;1.00;;;13.00;61.10;;;;;;5064643;28;20194;-46
2021/04/19 07:50:12;;;;;;;2.03;1.15;;;13.20;59.40;;;;;;5063365;28;20658;-45
2021/04/19 07:52:54;;;;;;;6.65;1.00;;;13.40;59.60;;;;;;5072282;28;20173;-49
2021/04/19 07:55:28;;;;;;;2.63;1.20;;;13.70;57.80;;;;;;5057196;28;20186;-47
2021/04/19 07:57:54;;;;;;;3.22;1.00;;;13.90;57.40;;;;;;5053629;28;20233;-49
2021/04/19 08:00:32;;;;;;;7.10;1.52;;;13.90;57.40;;;;;;5068169;28;20646;-44
2021/04/19 08:02:59;;;;;;;6.53;1.55;;;14.30;57.50;;;;;;5064060;28;20199;-46
2021/04/19 08:05:30;;;;;;;2.97;1.00;;;14.80;55.00;;;;;;5064020;28;20634;-46
2021/04/19 08:07:56;;;;;;;4.55;1.45;;;15.40;54.90;;;;;;5064081;28;20174;-45
2021/04/19 08:10:22;;;;;;;6.65;1.17;;;16.00;52.10;;;;;;5061114;28;20521;-47
2021/04/19 08:12:52;;;;;;;6.85;1.30;;;16.30;52.20;;;;;;5069731;28;20642;-45
2021/04/19 08:15:20;;;;;;;2.88;1.08;;;16.40;52.60;;;;;;5065649;28;20610;-46
2021/04/19 08:17:47;;;;;;;256.00;233.43;;;17.10;51.60;;;;;;5057078;28;20742;-47
2021/04/19 08:20:14;;;;;;;7.32;1.50;;;17.60;49.90;;;;;;5062633;28;20579;-49
2021/04/19 08:22:44;;;;;;;16.95;1.50;;;18.10;49.60;;;;;;5063852;28;20178;-46
2021/04/19 08:25:17;;;;;;;3.47;1.30;;;18.20;47.60;;;;;;5071957;28;20178;-48
2021/04/19 08:27:47;;;;;;;5.93;1.42;;;18.50;47.70;;;;;;5065671;28;20684;-46
2021/04/19 08:30:14;;;;;;;15.95;1.70;;;18.40;48.60;;;;;;5072314;28;20180;-50
2021/04/19 08:32:41;;;;;;;8.65;1.55;;;19.10;46.50;;;;;;5060278;28;20559;-46
2021/04/19 08:35:08;;;;;;;72.75;65.75;;;19.90;45.40;;;;;;5076656;28;20177;-50
2021/04/19 08:37:34;;;;;;;2.42;0.90;;;20.30;44.70;;;;;;5069613;28;20300;-46
2021/04/19 08:40:01;;;;;;;9.38;4.75;;;20.90;44.10;;;;;;5060830;28;20198;-47
2021/04/19 08:42:28;;;;;;;3.65;1.20;;;21.10;43.70;;;;;;5052908;28;20242;-48
2021/04/19 08:44:58;;;;;;;6.75;1.50;;;21.30;44.00;;;;;;5062923;28;20205;-50
2021/04/19 08:47:27;;;;;;;4.47;1.10;;;21.50;41.80;;;;;;5057401;28;20207;-45
2021/04/19 08:49:58;;;;;;;4.88;0.93;;;21.70;40.40;;;;;;5076741;28;20194;-49
2021/04/19 08:52:24;;;;;;;3.80;1.10;;;21.80;41.30;;;;;;5071744;28;20181;-50
2021/04/19 08:54:51;;;;;;;3.72;1.10;;;22.40;40.50;;;;;;5071916;28;20178;-50
2021/04/19 08:57:17;;;;;;;7.13;1.23;;;22.20;40.90;;;;;;5054801;28;20202;-46
2021/04/19 08:59:43;;;;;;;5.00;1.05;;;23.00;39.60;;;;;;5063478;28;20185;-45
2021/04/19 09:02:12;;;;;;;2.13;0.93;;;23.40;39.00;;;;;;5060392;28;20181;-48
2021/04/19 09:04:38;;;;;;;3.20;1.05;;;23.90;38.20;;;;;;5076180;28;20171;-50
2021/04/19 09:07:04;;;;;;;3.00;1.05;;;23.80;39.00;;;;;;5060061;28;20190;-47
2021/04/19 09:09:42;;;;;;;2.42;1.13;;;23.10;38.70;;;;;;5070264;28;20228;-49
2021/04/19 09:12:19;;;;;;;6.93;1.02;;;23.00;41.00;;;;;;5058297;28;20646;-47
2021/04/19 09:14:45;;;;;;;5.13;1.17;;;23.40;38.50;;;;;;5053153;28;20162;-47
2021/04/19 09:17:25;;;;;;;5.40;1.42;;;24.30;37.60;;;;;;5059091;28;20204;-48
2021/04/19 09:19:56;;;;;;;3.17;1.20;;;24.70;36.30;;;;;;5051435;28;20645;-49
2021/04/19 09:22:22;;;;;;;3.67;1.25;;;24.20;37.50;;;;;;5058836;28;20198;-50
2021/04/19 09:25:10;;;;;;;9.50;2.00;;;25.60;38.00;;;;;;5067744;28;20177;-50
2021/04/19 09:27:53;;;;;;;4.30;1.30;;;25.80;36.50;;;;;;5061087;28;20182;-47
2021/04/19 09:30:26;;;;;;;11.20;1.40;;;26.40;34.40;;;;;;5060247;28;20179;-48
2021/04/19 09:33:07;;;;;;;8.35;1.33;;;26.50;35.50;;;;;;5055287;28;20558;-48
2021/04/19 09:35:39;;;;;;;2.80;1.08;;;26.10;33.10;;;;;;5061507;28;20181;-51
2021/04/19 09:38:06;;;;;;;8.70;1.40;;;25.40;34.50;;;;;;5054273;28;20217;-51
2021/04/19 09:40:49;;;;;;;7.57;1.40;;;25.40;36.10;;;;;;5071383;28;20237;-46
2021/04/19 09:43:33;;;;;;;11.95;1.30;;;26.20;34.00;;;;;;5063790;28;20194;-48
2021/04/19 09:46:09;;;;;;;3.33;1.10;;;26.30;35.80;;;;;;5054913;28;20198;-47
2021/04/19 09:48:40;;;;;;;3.17;1.10;;;26.90;32.00;;;;;;5066046;28;20193;-46
2021/04/19 09:51:12;;;;;;;9.02;1.75;;;26.80;32.00;;;;;;5055889;28;20615;-46
2021/04/19 09:53:38;;;;;;;6.43;1.27;;;26.40;31.00;;;;;;5064526;28;20173;-48
2021/04/19 09:56:05;;;;;;;5.10;0.98;;;27.00;31.70;;;;;;5062544;28;20181;-47
2021/04/19 09:58:31;;;;;;;4.25;1.20;;;27.50;30.90;;;;;;5067240;28;20215;-47
2021/04/19 10:00:58;;;;;;;31.23;3.22;;;27.30;30.40;;;;;;5080471;28;20162;-47
2021/04/19 10:03:25;;;;;;;5.57;1.42;;;27.60;31.00;;;;;;5065854;28;20174;-48
2021/04/19 10:05:51;;;;;;;6.53;1.27;;;28.50;30.50;;;;;;5066261;28;20174;-47
2021/04/19 10:08:24;;;;;;;6.90;1.30;;;28.60;29.10;;;;;;5079798;28;20648;-47
2021/04/19 10:10:53;;;;;;;5.35;1.10;;;29.20;28.60;;;;;;5077618;28;20171;-47
2021/04/19 10:13:30;;;;;;;2.22;0.80;;;28.80;28.60;;;;;;5064085;28;20182;-47
2021/04/19 10:16:06;;;;;;;2.72;1.10;;;27.90;29.00;;;;;;5072059;28;20158;-50
2021/04/19 10:18:33;;;;;;;3.17;1.30;;;28.00;28.40;;;;;;5060200;28;20217;-47
2021/04/19 10:21:00;;;;;;;3.13;1.20;;;27.70;27.90;;;;;;5064797;28;20609;-48
2021/04/19 10:23:41;;;;;;;4.75;1.15;;;27.70;27.90;;;;;;5054437;28;20197;-46
2021/04/19 10:26:08;;;;;;;3.80;1.17;;;27.30;27.30;;;;;;5065476;28;20627;-48
2021/04/19 10:28:36;;;;;;;6.07;1.20;;;27.70;28.70;;;;;;5070439;28;20288;-49
2021/04/19 10:31:14;;;;;;;2.83;1.23;;;27.90;28.50;;;;;;5074087;28;20178;-47
2021/04/19 10:33:43;;;;;;;5.43;1.00;;;28.10;28.80;;;;;;5073132;28;20202;-48
2021/04/19 10:36:19;;;;;;;55.90;2.25;;;28.30;30.00;;;;;;5060063;28;20535;-47
2021/04/19 10:39:09;;;;;;;5.32;1.10;;;28.10;29.20;;;;;;5061282;28;20176;-48
2021/04/19 10:41:36;;;;;;;8.32;1.25;;;28.30;28.00;;;;;;5064561;28;20184;-47
2021/04/19 10:44:03;;;;;;;3.50;1.15;;;29.60;27.90;;;;;;5062435;28;20197;-49
2021/04/19 10:46:34;;;;;;;3.35;1.20;;;28.90;28.80;;;;;;5072722;28;20658;-48
2021/04/19 10:49:01;;;;;;;12.35;1.17;;;29.30;28.40;;;;;;5074824;28;20166;-49
2021/04/19 10:51:31;;;;;;;6.70;1.25;;;30.40;27.70;;;;;;5074399;28;20176;-48
2021/04/19 10:54:03;;;;;;;6.38;1.05;;;30.60;26.60;;;;;;5079932;28;20193;-51
2021/04/19 10:56:29;;;;;;;2.90;1.10;;;29.80;26.70;;;;;;5065296;28;20186;-50
2021/04/19 10:58:59;;;;;;;5.80;1.10;;;29.70;26.90;;;;;;5063446;28;20197;-49
2021/04/19 11:01:30;;;;;;;7.38;1.17;;;29.80;27.80;;;;;;5079501;28;20547;-49
2021/04/19 11:03:57;;;;;;;3.78;1.00;;;30.60;27.60;;;;;;5061092;28;20186;-50
2021/04/19 11:06:23;;;;;;;4.20;1.20;;;29.50;27.40;;;;;;5060777;28;20182;-48
2021/04/19 11:09:06;;;;;;;4.80;1.00;;;28.20;25.70;;;;;;5063170;28;20658;-48
2021/04/19 11:11:40;;;;;;;7.82;1.35;;;28.00;27.90;;;;;;5064582;28;20185;-50
2021/04/19 11:14:20;;;;;;;5.10;0.98;;;29.30;27.10;;;;;;5058891;28;20535;-49
2021/04/19 11:17:02;;;;;;;2.70;0.93;;;30.10;26.70;;;;;;5080386;28;20190;-47
2021/04/19 11:19:44;;;;;;;6.05;1.00;;;30.50;26.40;;;;;;5059752;28;20186;-48
2021/04/19 11:22:36;;;;;;;3.45;1.10;;;30.70;26.50;;;;;;5059346;28;20158;-48
2021/04/19 11:25:15;;;;;;;1.90;0.90;;;30.30;24.60;;;;;;5061123;28;20189;-50
2021/04/19 11:27:42;;;;;;;2.80;1.00;;;30.30;24.20;;;;;;5060594;28;20534;-48
2021/04/19 11:30:26;;;;;;;2.22;1.02;;;30.40;25.10;;;;;;5057025;28;20171;-50
2021/04/19 11:33:21;;;;;;;1.42;0.80;;;31.10;24.50;;;;;;5061086;28;20685;-50
2021/04/19 11:36:00;;;;;;;2.13;1.10;;;30.70;25.00;;;;;;5060788;28;20249;-49
2021/04/19 11:38:27;;;;;;;2.42;1.10;;;31.10;24.60;;;;;;5060751;28;20217;-49
2021/04/19 11:41:00;;;;;;;2.80;1.00;;;30.20;24.20;;;;;;5059536;28;20179;-47
2021/04/19 11:43:26;;;;;;;2.83;0.90;;;29.40;25.60;;;;;;5073836;28;20182;-48
2021/04/19 11:46:01;;;;;;;2.55;0.90;;;28.30;26.10;;;;;;5060065;28;20182;-52
2021/04/19 11:48:27;;;;;;;5.05;0.90;;;29.10;25.80;;;;;;5059384;28;20162;-47
2021/04/19 11:50:54;;;;;;;3.60;0.93;;;28.90;27.00;;;;;;5059448;28;20175;-52
2021/04/19 11:53:24;;;;;;;16.38;1.30;;;29.60;25.50;;;;;;5060753;28;20174;-48
2021/04/19 11:55:51;;;;;;;8.45;1.02;;;29.00;26.40;;;;;;5059521;28;20177;-48
2021/04/19 11:58:17;;;;;;;6.47;1.10;;;28.90;25.00;;;;;;5058865;28;20206;-47
2021/04/19 12:00:44;;;;;;;2.58;1.00;;;27.90;26.60;;;;;;5060801;28;20182;-51
2021/04/19 12:03:10;;;;;;;3.58;1.10;;;28.50;26.40;;;;;;5063930;28;20548;-48
2021/04/19 12:05:37;;;;;;;3.67;1.00;;;29.90;27.00;;;;;;5057585;28;20690;-51
2021/04/19 12:08:03;;;;;;;6.88;0.93;;;31.10;25.70;;;;;;5059417;28;20203;-48
2021/04/19 12:10:30;;;;;;;9.15;5.80;;;30.10;26.60;;;;;;5058287;28;20174;-47
2021/04/19 12:12:56;;;;;;;9.90;2.03;;;28.20;26.20;;;;;;5058492;28;20194;-46
2021/04/19 12:15:22;;;;;;;4.82;0.98;;;28.80;25.40;;;;;;5060152;28;20198;-49
2021/04/19 12:17:48;;;;;;;14.63;1.90;;;28.70;25.10;;;;;;5060188;28;20218;-46
2021/04/19 12:20:14;;;;;;;4.28;1.20;;;27.80;25.10;;;;;;5060051;28;20185;-47
2021/04/19 12:22:40;;;;;;;4.15;1.52;;;28.60;26.00;;;;;;5060241;28;20568;-47
2021/04/19 12:25:07;;;;;;;6.00;1.10;;;28.00;25.10;;;;;;5058938;28;20191;-47
2021/04/19 12:27:33;;;;;;;2.33;0.90;;;27.60;25.60;;;;;;5067950;28;20646;-49
2021/04/19 12:29:59;;;;;;;5.65;1.00;;;27.20;25.70;;;;;;5053404;28;20178;-46
2021/04/19 12:32:31;;;;;;;2.63;1.02;;;27.10;27.20;;;;;;5107943;27;20519;-51
2021/04/19 12:34:57;;;;;;;5.50;1.40;;;28.00;24.80;;;;;;5107559;28;20175;-47
2021/04/19 12:37:23;;;;;;;2.88;1.00;;;27.40;25.50;;;;;;5108050;28;20875;-48
2021/04/19 12:39:49;;;;;;;7.10;1.08;;;27.60;25.30;;;;;;5106923;28;20169;-47
2021/04/19 12:42:15;;;;;;;3.58;1.00;;;27.60;25.80;;;;;;5108315;28;20703;-48
2021/04/19 12:44:42;;;;;;;3.70;1.10;;;27.80;25.80;;;;;;5116633;28;20209;-46
2021/04/19 12:47:08;;;;;;;14.95;1.50;;;27.60;26.20;;;;;;5115631;28;20201;-49
2021/04/19 12:49:34;;;;;;;3.75;1.33;;;27.80;25.10;;;;;;5113186;28;20197;-49
2021/04/19 12:52:00;;;;;;;4.40;1.02;;;27.30;25.00;;;;;;5115002;28;20211;-49
2021/04/19 12:54:26;;;;;;;5.40;0.95;;;26.90;26.40;;;;;;5119540;28;20172;-50
2021/04/19 12:56:53;;;;;;;5.78;1.10;;;26.20;26.80;;;;;;5115602;28;20184;-49
2021/04/19 12:59:19;;;;;;;6.03;0.90;;;26.30;26.60;;;;;;5115690;27;20183;-50